Time;durP1;ratioP1;P1;durP2;ratioP2;P2;SDS_P1;SDS_P2;PMS_P1;PMS_P2;Temp;Humidity;BMP_temperature;BMP_pressure;BME280_temperature;BME280_humidity;BME280_pressure;Samples;Min_cycle;Max_cycle;Signal;HPM_P1;HPM_P2
2023/01/12 00:02:22;;;;;;;5.77;2.80;;;;;;;7.58;100.00;99625.78;5022784;28;20482;-67
2023/01/12 00:04:49;;;;;;;6.33;3.60;;;;;;;7.52;100.00;99623.69;5023962;28;20486;-68
2023/01/12 00:07:17;;;;;;;8.23;2.90;;;;;;;7.63;100.00;99642.19;5022287;28;20479;-66
2023/01/12 00:09:44;;;;;;;5.93;2.13;;;;;;;7.63;100.00;99631.53;5039977;28;21021;-69
2023/01/12 00:12:11;;;;;;;6.27;2.20;;;;;;;7.75;100.00;99629.59;5027479;28;20526;-67
2023/01/12 00:14:39;;;;;;;6.17;2.00;;;;;;;7.81;100.00;99638.84;5023310;28;20463;-68
2023/01/12 00:17:06;;;;;;;7.23;2.40;;;;;;;7.83;100.00;99628.91;5022532;28;20541;-67
2023/01/12 00:19:33;;;;;;;7.97;2.27;;;;;;;7.86;100.00;99634.81;5033083;28;20506;-68
2023/01/12 00:22:07;;;;;;;12.30;2.23;;;;;;;7.83;100.00;99635.09;5041199;28;20481;-68
2023/01/12 00:24:37;;;;;;;5.43;2.33;;;;;;;7.84;100.00;99615.44;5003789;28;20428;-67
2023/01/12 00:27:05;;;;;;;5.87;3.23;;;;;;;8.01;100.00;99621.91;5028357;28;20509;-69
2023/01/12 00:29:32;;;;;;;6.63;1.70;;;;;;;7.89;100.00;99621.19;5042616;28;20492;-68
2023/01/12 00:32:00;;;;;;;9.27;2.60;;;;;;;7.98;100.00;99602.72;5042575;28;20478;-69
2023/01/12 00:34:27;;;;;;;7.93;2.20;;;;;;;7.94;100.00;99620.78;5024621;28;20478;-70
2023/01/12 00:36:54;;;;;;;5.43;1.60;;;;;;;7.95;100.00;99614.50;5021516;28;20935;-68
2023/01/12 00:39:21;;;;;;;7.77;2.50;;;;;;;8.00;100.00;99625.56;5023657;28;20511;-68
2023/01/12 00:47:17;;;;;;;6.17;1.83;;;;;;;7.94;100.00;99618.13;5030782;28;20544;-66
2023/01/12 00:49:44;;;;;;;5.30;1.40;;;;;;;8.02;100.00;99610.31;5041100;28;20481;-67
2023/01/12 00:52:13;;;;;;;4.07;1.47;;;;;;;7.98;100.00;99624.84;5039406;28;20474;-67
2023/01/12 00:54:40;;;;;;;4.30;2.07;;;;;;;7.95;100.00;99609.19;5022214;28;20459;-66
2023/01/12 00:57:09;;;;;;;3.20;1.60;;;;;;;7.97;100.00;99627.66;5023182;28;20501;-69
2023/01/12 00:59:36;;;;;;;4.77;2.20;;;;;;;7.95;100.00;99637.59;5029490;28;20482;-66
2023/01/12 01:02:03;;;;;;;5.80;1.80;;;;;;;7.74;100.00;99625.25;5029869;28;20479;-67
2023/01/12 01:04:30;;;;;;;5.40;2.70;;;;;;;7.72;100.00;99617.44;5035387;28;20465;-67
2023/01/12 01:06:57;;;;;;;4.10;1.80;;;;;;;7.74;100.00;99630.56;5021800;28;20558;-66
2023/01/12 01:09:23;;;;;;;6.03;2.00;;;;;;;7.66;100.00;99628.59;5032730;28;20890;-66
2023/01/12 01:11:50;;;;;;;6.67;2.00;;;;;;;7.60;100.00;99623.81;5021606;28;20525;-66
2023/01/12 01:14:18;;;;;;;9.50;2.70;;;;;;;7.65;100.00;99636.72;5022908;28;20490;-67
2023/01/12 01:16:45;;;;;;;5.27;2.20;;;;;;;7.62;100.00;99626.34;5036929;28;20486;-67
2023/01/12 01:19:11;;;;;;;5.23;2.40;;;;;;;7.66;100.00;99617.13;5038053;28;20521;-67
2023/01/12 01:21:38;;;;;;;10.43;3.00;;;;;;;7.58;100.00;99631.09;5025226;28;20483;-67
2023/01/12 01:24:08;;;;;;;11.80;3.00;;;;;;;7.54;100.00;99630.53;5034326;28;20439;-66
2023/01/12 01:26:34;;;;;;;9.10;2.53;;;;;;;7.51;100.00;99612.19;5022160;28;20533;-67
2023/01/12 01:29:01;;;;;;;6.87;2.27;;;;;;;7.68;100.00;99620.50;5035674;28;20477;-66
2023/01/12 01:31:29;;;;;;;12.40;4.37;;;;;;;7.63;100.00;99612.91;5025555;28;20552;-67
2023/01/12 01:33:55;;;;;;;6.30;3.10;;;;;;;7.65;100.00;99597.66;5040872;28;20478;-68
2023/01/12 01:36:22;;;;;;;11.00;3.10;;;;;;;7.70;100.00;99603.41;5019479;28;20482;-66
2023/01/12 01:38:49;;;;;;;6.63;2.53;;;;;;;7.74;100.00;99614.59;5033402;28;20490;-66
2023/01/12 01:41:19;;;;;;;5.90;2.90;;;;;;;7.90;100.00;99620.22;5040477;28;20602;-66
2023/01/12 01:43:54;;;;;;;11.20;3.17;;;;;;;7.84;100.00;99610.13;5022841;28;20493;-66
2023/01/12 01:46:38;;;;;;;12.17;3.60;;;;;;;7.75;100.00;99600.34;5022619;28;20483;-67
2023/01/12 01:49:28;;;;;;;13.33;3.60;;;;;;;7.85;100.00;99621.63;5030334;28;21019;-67
2023/01/12 01:51:57;;;;;;;5.27;2.80;;;;;;;7.90;100.00;99614.91;5020270;28;20526;-67
2023/01/12 01:54:24;;;;;;;14.77;3.47;;;;;;;7.96;100.00;99610.84;5022298;28;20444;-67
2023/01/12 01:56:53;;;;;;;10.37;2.80;;;;;;;7.82;100.00;99606.78;5021099;28;20479;-67
2023/01/12 01:59:23;;;;;;;8.77;2.43;;;;;;;7.77;100.00;99597.53;5020992;28;20586;-67
2023/01/12 02:01:51;;;;;;;8.30;2.20;;;;;;;7.71;100.00;99607.75;5020648;28;20463;-66
2023/01/12 02:04:18;;;;;;;7.03;2.50;;;;;;;7.71;100.00;99585.63;5021830;28;20475;-66
2023/01/12 02:06:44;;;;;;;7.77;1.90;;;;;;;7.77;100.00;99611.66;5020112;28;20513;-65
2023/01/12 02:09:13;;;;;;;10.00;2.67;;;;;;;7.68;100.00;99599.22;5021156;28;20474;-66
2023/01/12 02:17:21;;;;;;;6.70;2.40;;;;;;;7.48;100.00;99606.28;5040334;28;20482;-66
2023/01/12 02:20:29;;;;;;;6.13;2.60;;;;;;;7.58;100.00;99601.84;5039673;28;20509;-67
2023/01/12 02:23:32;;;;;;;6.23;3.07;;;;;;;7.60;100.00;99591.06;4979792;28;20483;-66
2023/01/12 02:26:46;;;;;;;6.70;3.00;;;;;;;7.59;100.00;99598.22;4973671;28;20579;-66
2023/01/12 02:29:43;;;;;;;6.63;2.50;;;;;;;7.57;100.00;99586.00;4994001;28;20526;-65
2023/01/12 02:32:15;;;;;;;6.20;2.93;;;;;;;7.68;100.00;99583.25;4977776;28;20502;-67
2023/01/12 02:34:47;;;;;;;6.90;3.00;;;;;;;7.57;100.00;99580.69;5021268;28;20471;-68
2023/01/12 02:37:19;;;;;;;5.97;2.73;;;;;;;7.65;100.00;99588.84;5020012;28;20498;-66
2023/01/12 02:39:50;;;;;;;10.70;3.60;;;;;;;7.59;100.00;99576.09;5032565;28;20513;-66
2023/01/12 02:45:12;;;;;;;14.67;4.97;;;;;;;7.63;100.00;99564.19;5041034;28;20421;-66
2023/01/12 02:47:45;;;;;;;10.00;3.23;;;;;;;7.79;100.00;99567.13;5023628;28;20929;-66
2023/01/12 02:50:15;;;;;;;10.30;3.30;;;;;;;7.72;100.00;99568.66;5028413;28;20447;-65
2023/01/12 02:52:44;;;;;;;11.93;2.97;;;;;;;7.73;100.00;99547.25;5035694;28;20832;-68
2023/01/12 02:55:11;;;;;;;6.00;2.77;;;;;;;7.86;100.00;99557.63;5020652;28;20458;-65
2023/01/12 02:57:38;;;;;;;9.43;3.33;;;;;;;7.90;100.00;99552.88;5031957;28;20478;-67
2023/01/12 03:00:06;;;;;;;6.83;3.67;;;;;;;7.86;100.00;99549.66;5003398;28;20502;-66
2023/01/12 03:02:33;;;;;;;6.40;3.97;;;;;;;8.06;100.00;99538.97;5037592;28;20473;-66
2023/01/12 03:05:01;;;;;;;7.33;3.20;;;;;;;7.91;100.00;99544.72;5023298;28;20458;-66
2023/01/12 03:07:37;;;;;;;5.20;2.73;;;;;;;8.02;100.00;99542.88;5020225;28;20823;-67
2023/01/12 03:10:16;;;;;;;6.57;3.80;;;;;;;7.98;100.00;99536.19;5020827;28;20486;-67
2023/01/12 03:12:44;;;;;;;9.43;3.20;;;;;;;8.07;100.00;99530.84;5037695;28;20624;-66
2023/01/12 03:15:13;;;;;;;11.20;3.43;;;;;;;8.01;100.00;99525.25;5030175;28;20490;-66
2023/01/12 03:17:42;;;;;;;6.60;3.10;;;;;;;8.13;100.00;99524.13;5023956;28;20466;-66
2023/01/12 03:20:15;;;;;;;10.20;3.23;;;;;;;8.17;100.00;99528.16;5023288;28;20519;-66
2023/01/12 03:22:42;;;;;;;5.90;3.50;;;;;;;8.21;100.00;99520.72;5023274;28;20478;-67
2023/01/12 03:25:12;;;;;;;10.53;3.70;;;;;;;8.07;100.00;99520.22;5024025;28;20462;-67
2023/01/12 03:27:41;;;;;;;6.83;3.30;;;;;;;8.27;100.00;99525.50;5024225;28;20952;-67
2023/01/12 03:30:13;;;;;;;7.33;3.33;;;;;;;8.02;100.00;99518.94;5023729;28;20511;-70
2023/01/12 03:32:40;;;;;;;5.00;3.10;;;;;;;8.21;100.00;99521.59;5024310;28;20478;-66
2023/01/12 03:35:08;;;;;;;10.17;3.50;;;;;;;8.19;100.00;99512.03;5042450;28;20450;-66
2023/01/12 03:37:37;;;;;;;7.23;3.77;;;;;;;8.06;100.00;99509.69;5042404;28;20501;-66
2023/01/12 03:40:09;;;;;;;10.63;3.90;;;;;;;8.24;100.00;99512.44;5043780;28;20520;-65
2023/01/12 03:42:38;;;;;;;8.60;3.60;;;;;;;8.19;100.00;99507.53;5023365;28;20499;-66
2023/01/12 03:45:12;;;;;;;9.37;4.00;;;;;;;8.25;100.00;99509.66;5024000;28;20450;-65
2023/01/12 03:47:41;;;;;;;8.40;4.07;;;;;;;7.96;100.00;99487.56;5023561;28;20451;-64
2023/01/12 03:50:11;;;;;;;5.30;2.63;;;;;;;8.05;100.00;99502.69;5022472;28;20463;-66
2023/01/12 03:52:40;;;;;;;7.37;2.57;;;;;;;8.02;100.00;99484.31;5023581;28;20504;-67
2023/01/12 03:55:09;;;;;;;4.10;2.80;;;;;;;8.07;100.00;99504.22;5023691;28;20455;-67
2023/01/12 03:57:37;;;;;;;8.43;3.03;;;;;;;8.14;100.00;99496.47;5003998;28;20437;-67
2023/01/12 04:00:06;;;;;;;8.97;3.20;;;;;;;7.97;100.00;99490.09;5030863;28;20513;-67
2023/01/12 04:02:33;;;;;;;7.80;3.33;;;;;;;8.08;100.00;99476.59;5041764;28;20470;-67
2023/01/12 04:05:00;;;;;;;6.70;3.57;;;;;;;7.98;100.00;99475.78;5042373;28;20445;-67
2023/01/12 04:07:26;;;;;;;10.93;3.87;;;;;;;8.03;100.00;99470.03;5022563;28;20507;-68
2023/01/12 04:09:55;;;;;;;7.40;4.27;;;;;;;8.03;100.00;99470.03;5025513;28;20482;-67
2023/01/12 04:12:22;;;;;;;6.27;3.33;;;;;;;8.09;100.00;99466.81;5036758;28;20490;-68
2023/01/12 04:14:49;;;;;;;8.67;3.27;;;;;;;8.02;100.00;99450.59;5020718;28;20479;-67
2023/01/12 04:17:16;;;;;;;9.70;3.83;;;;;;;7.95;100.00;99453.94;5011703;28;20490;-67
2023/01/12 04:19:43;;;;;;;11.77;4.40;;;;;;;8.04;100.00;99442.44;5021675;28;20487;-68
2023/01/12 04:24:55;;;;;;;15.43;4.27;;;;;;;7.97;100.00;99441.31;5003246;28;20527;-68
2023/01/12 04:27:22;;;;;;;9.13;3.90;;;;;;;7.91;100.00;99435.59;5002307;28;20558;-68
2023/01/12 04:29:49;;;;;;;7.97;3.90;;;;;;;7.97;100.00;99433.34;5003303;28;20444;-68
2023/01/12 04:32:15;;;;;;;10.77;3.87;;;;;;;7.89;100.00;99428.75;5002643;28;20484;-67
2023/01/12 04:34:42;;;;;;;13.43;4.00;;;;;;;7.87;100.00;99426.22;5003081;28;20572;-69
2023/01/12 04:37:09;;;;;;;14.43;4.83;;;;;;;7.93;100.00;99406.19;5001749;28;20534;-69
2023/01/12 04:39:35;;;;;;;6.37;4.07;;;;;;;7.89;100.00;99420.75;5003005;28;20526;-68
2023/01/12 04:42:04;;;;;;;16.40;4.70;;;;;;;7.92;100.00;99407.19;5002219;28;21083;-69
2023/01/12 04:44:31;;;;;;;8.40;4.60;;;;;;;7.94;100.00;99405.22;5003072;28;20464;-68
2023/01/12 04:46:57;;;;;;;12.87;3.47;;;;;;;7.91;100.00;99401.00;5001864;28;20498;-69
2023/01/12 04:49:24;;;;;;;13.97;4.50;;;;;;;7.86;100.00;99402.41;5003218;28;20447;-70
2023/01/12 04:51:51;;;;;;;8.60;4.20;;;;;;;7.83;100.00;99387.59;5001582;28;20487;-69
2023/01/12 04:54:17;;;;;;;12.30;4.47;;;;;;;7.94;100.00;99391.06;5002516;28;20960;-68
2023/01/12 04:56:44;;;;;;;11.03;3.23;;;;;;;7.87;100.00;99391.63;5001502;28;20562;-69
2023/01/12 04:59:12;;;;;;;11.13;3.90;;;;;;;7.91;100.00;99411.63;5002376;28;20997;-69
2023/01/12 05:01:38;;;;;;;8.57;4.50;;;;;;;7.83;100.00;99397.38;5006203;28;20498;-67
2023/01/12 05:04:05;;;;;;;17.20;4.17;;;;;;;7.79;100.00;99391.50;5018961;28;20483;-67
2023/01/12 05:06:32;;;;;;;4.73;2.80;;;;;;;7.87;100.00;99393.47;5018968;28;20467;-67
2023/01/12 05:11:43;;;;;;;8.77;3.10;;;;;;;7.84;100.00;99386.59;5001823;28;20486;-66
2023/01/12 05:14:09;;;;;;;14.37;4.70;;;;;;;7.89;100.00;99380.84;5002255;28;20480;-67
2023/01/12 05:16:37;;;;;;;7.03;2.67;;;;;;;7.86;100.00;99371.34;5003745;28;20511;-66
2023/01/12 05:19:04;;;;;;;6.40;3.03;;;;;;;7.84;100.00;99365.31;5002873;28;20463;-65
2023/01/12 05:21:30;;;;;;;9.90;3.73;;;;;;;7.84;100.00;99359.97;4994761;28;20515;-66
2023/01/12 05:23:57;;;;;;;4.33;2.27;;;;;;;7.85;100.00;99358.19;5014804;28;20462;-66
2023/01/12 05:26:24;;;;;;;7.70;3.10;;;;;;;7.84;100.00;99357.31;5000041;28;20508;-66
2023/01/12 05:28:51;;;;;;;8.73;3.17;;;;;;;7.86;100.00;99359.84;5003617;28;20565;-66
2023/01/12 05:31:18;;;;;;;9.30;2.60;;;;;;;7.75;100.00;99342.22;5005322;28;21020;-66
2023/01/12 05:33:46;;;;;;;4.30;2.27;;;;;;;7.89;100.00;99341.75;5000923;28;20461;-68
2023/01/12 05:36:15;;;;;;;5.53;2.53;;;;;;;7.87;100.00;99349.06;4999770;28;20495;-65
2023/01/12 05:38:41;;;;;;;6.50;2.40;;;;;;;7.92;100.00;99348.63;5000494;28;20460;-66
2023/01/12 05:41:09;;;;;;;5.50;2.87;;;;;;;7.86;100.00;99331.44;5010910;28;20510;-65
2023/01/12 05:43:50;;;;;;;10.10;2.90;;;;;;;7.78;100.00;99298.50;5021147;28;20465;-67
2023/01/12 05:46:19;;;;;;;9.83;2.60;;;;;;;7.79;100.00;99303.69;5008073;28;20483;-69
2023/01/12 05:48:47;;;;;;;5.20;1.97;;;;;;;7.77;100.00;99300.34;5017269;28;20452;-66
2023/01/12 05:51:14;;;;;;;5.93;2.80;;;;;;;7.73;100.00;99310.44;5011021;28;21033;-65
2023/01/12 05:53:41;;;;;;;4.70;1.70;;;;;;;7.72;100.00;99265.34;5004100;28;21085;-67
2023/01/12 05:56:10;;;;;;;6.80;2.07;;;;;;;7.81;100.00;99307.06;5019969;28;20553;-65
2023/01/12 05:58:37;;;;;;;2.13;1.53;;;;;;;7.84;100.00;99290.78;5001652;28;20495;-73
2023/01/12 06:01:07;;;;;;;6.60;2.30;;;;;;;7.90;100.00;99292.88;5003174;28;21087;-64
2023/01/12 06:03:34;;;;;;;4.00;1.77;;;;;;;7.88;100.00;99294.84;5001325;28;20459;-67
2023/01/12 06:06:02;;;;;;;4.07;1.93;;;;;;;7.81;100.00;99298.22;5000921;28;20480;-66
2023/01/12 06:08:28;;;;;;;2.93;2.03;;;;;;;7.79;100.00;99278.91;5004996;28;20459;-67
2023/01/12 06:10:55;;;;;;;4.67;1.77;;;;;;;7.82;100.00;99289.28;5020396;28;20506;-66
2023/01/12 06:16:08;;;;;;;5.57;1.50;;;;;;;7.91;100.00;99275.06;5032875;28;20485;-66
2023/01/12 06:18:35;;;;;;;3.00;1.53;;;;;;;7.76;100.00;99274.75;5029880;28;20504;-68
2023/01/12 06:21:03;;;;;;;4.93;2.00;;;;;;;7.90;100.00;99287.56;5035760;28;20486;-67
2023/01/12 06:23:30;;;;;;;2.53;1.80;;;;;;;7.83;100.00;99278.50;5019874;28;20490;-67
2023/01/12 06:26:00;;;;;;;4.77;2.77;;;;;;;7.84;100.00;99274.81;5020825;28;20831;-67
2023/01/12 06:28:27;;;;;;;3.90;1.80;;;;;;;7.85;100.00;99286.34;5039268;28;20446;-66
2023/01/12 06:30:57;;;;;;;6.20;2.10;;;;;;;7.77;100.00;99278.22;5035800;28;20580;-68
2023/01/12 06:33:24;;;;;;;3.10;1.50;;;;;;;7.77;100.00;99273.75;5020539;28;20455;-66
2023/01/12 06:35:51;;;;;;;3.03;1.30;;;;;;;7.76;100.00;99264.09;5019317;28;20583;-67
2023/01/12 06:38:19;;;;;;;4.57;1.90;;;;;;;7.69;100.00;99260.31;5027606;28;20467;-66
2023/01/12 06:40:46;;;;;;;1.93;1.20;;;;;;;7.68;100.00;99218.75;5020053;28;20495;-68
2023/01/12 06:43:12;;;;;;;3.83;1.57;;;;;;;7.66;100.00;99239.34;5019850;28;20492;-68
2023/01/12 06:45:39;;;;;;;3.50;1.50;;;;;;;7.57;100.00;99245.53;5019998;28;20498;-68
2023/01/12 06:48:06;;;;;;;1.63;1.37;;;;;;;7.58;100.00;99249.88;5021692;28;20439;-68
2023/01/12 06:50:33;;;;;;;3.50;1.40;;;;;;;7.66;100.00;99245.50;5021825;28;21082;-67
2023/01/12 06:52:59;;;;;;;3.10;1.37;;;;;;;7.65;100.00;99219.06;5028155;28;20883;-67
2023/01/12 06:55:28;;;;;;;4.10;1.70;;;;;;;7.62;100.00;99214.88;5043505;28;20887;-67
2023/01/12 06:57:54;;;;;;;3.93;2.00;;;;;;;7.52;100.00;99160.88;5029864;28;20443;-69
2023/01/12 07:00:22;;;;;;;2.87;1.90;;;;;;;7.65;100.00;99211.91;5024902;28;20486;-66
2023/01/12 07:02:49;;;;;;;3.43;1.60;;;;;;;7.65;100.00;99233.19;5043662;28;20462;-65
2023/01/12 07:05:16;;;;;;;4.33;1.13;;;;;;;7.56;100.00;99223.44;5042303;28;20449;-67
2023/01/12 07:07:43;;;;;;;1.47;0.90;;;;;;;7.63;100.00;99203.22;5042937;28;20484;-67
2023/01/12 07:10:11;;;;;;;2.03;1.10;;;;;;;7.63;100.00;99207.72;5043199;28;20521;-65
2023/01/12 07:12:39;;;;;;;2.77;1.17;;;;;;;7.58;100.00;99191.38;5042009;28;20886;-65
2023/01/12 07:15:07;;;;;;;1.83;0.80;;;;;;;7.53;100.00;99203.28;5042631;28;20438;-67
2023/01/12 07:17:34;;;;;;;4.73;1.20;;;;;;;7.49;100.00;99162.00;5023566;28;20458;-67
2023/01/12 07:20:00;;;;;;;1.73;0.77;;;;;;;7.56;100.00;99174.72;5034888;28;20525;-68
2023/01/12 07:22:27;;;;;;;2.67;1.10;;;;;;;7.60;100.00;99194.72;5041901;28;20516;-68
2023/01/12 07:24:54;;;;;;;2.20;0.87;;;;;;;7.56;100.00;99188.03;5043327;28;20442;-68
2023/01/12 07:27:21;;;;;;;1.33;1.10;;;;;;;7.54;100.00;99182.84;5023726;28;21409;-68
2023/01/12 07:29:49;;;;;;;0.80;0.60;;;;;;;7.49;100.00;99172.63;5023806;28;20455;-69
2023/01/12 07:32:15;;;;;;;0.90;0.77;;;;;;;7.53;100.00;99181.16;5023547;28;20474;-68
2023/01/12 07:34:42;;;;;;;1.90;1.03;;;;;;;7.52;100.00;99164.38;5022750;28;20455;-69
2023/01/12 07:37:08;;;;;;;2.20;0.90;;;;;;;7.43;100.00;99175.03;5037414;28;20486;-69
2023/01/12 07:39:35;;;;;;;2.30;1.10;;;;;;;7.46;100.00;99162.28;5024902;28;20527;-68
2023/01/12 07:44:46;;;;;;;2.13;0.90;;;;;;;7.38;100.00;99159.56;5024166;28;20446;-66
2023/01/12 07:47:14;;;;;;;1.20;0.90;;;;;;;7.37;100.00;99157.03;5030951;28;21007;-70
2023/01/12 07:49:40;;;;;;;1.37;0.73;;;;;;;7.33;100.00;99162.66;5041794;28;20494;-68
2023/01/12 07:52:07;;;;;;;1.33;0.83;;;;;;;7.26;100.00;99142.13;5022804;28;20498;-69
2023/01/12 07:54:35;;;;;;;3.90;1.10;;;;;;;7.32;100.00;99163.63;5023829;28;20487;-66
2023/01/12 07:57:01;;;;;;;1.80;0.90;;;;;;;7.23;100.00;99156.53;5024851;28;20482;-68
2023/01/12 07:59:28;;;;;;;1.50;0.50;;;;;;;7.20;100.00;99170.09;5043236;28;20443;-68
2023/01/12 08:01:55;;;;;;;1.70;0.60;;;;;;;7.23;100.00;99175.13;5027705;28;20519;-70
2023/01/12 08:04:23;;;;;;;1.80;0.90;;;;;;;7.26;100.00;99164.22;5026983;28;20465;-69
2023/01/12 08:06:50;;;;;;;1.50;0.80;;;;;;;7.29;100.00;99169.25;5042089;28;20482;-68
2023/01/12 08:09:16;;;;;;;0.80;0.50;;;;;;;7.34;100.00;99160.81;5042833;28;20497;-68
2023/01/12 08:11:43;;;;;;;1.00;0.80;;;;;;;7.34;100.00;99184.75;5034367;28;20553;-69
2023/01/12 08:14:13;;;;;;;0.70;0.70;;;;;;;7.33;100.00;99183.91;5020771;28;20483;-68
2023/01/12 08:16:41;;;;;;;2.33;0.80;;;;;;;7.32;100.00;99186.72;5022456;28;20467;-67
2023/01/12 08:19:10;;;;;;;0.70;0.70;;;;;;;7.37;100.00;99184.44;5021300;28;20459;-67
2023/01/12 08:21:44;;;;;;;1.60;1.50;;;;;;;7.31;100.00;99180.56;5021255;28;20518;-67
2023/01/12 08:24:13;;;;;;;1.17;0.77;;;;;;;7.34;100.00;99190.91;5022177;28;20505;-66
2023/01/12 08:26:43;;;;;;;1.50;1.00;;;;;;;7.24;100.00;99168.84;5021599;28;20537;-68
2023/01/12 08:29:14;;;;;;;0.80;0.80;;;;;;;7.20;100.00;99155.97;5022887;28;20455;-68
2023/01/12 08:31:41;;;;;;;1.33;0.73;;;;;;;7.41;100.00;99188.47;5022197;28;20486;-69
2023/01/12 08:34:08;;;;;;;4.50;1.70;;;;;;;7.49;100.00;99172.63;5036527;28;20875;-69
2023/01/12 08:36:35;;;;;;;4.20;1.37;;;;;;;7.46;100.00;99182.75;5040568;28;20482;-68
2023/01/12 08:39:04;;;;;;;1.60;1.13;;;;;;;7.43;100.00;99181.22;5042243;28;20473;-66
2023/01/12 08:41:35;;;;;;;2.00;1.20;;;;;;;7.37;100.00;99179.13;5040277;28;20482;-66
2023/01/12 08:44:04;;;;;;;3.90;1.67;;;;;;;7.35;100.00;99160.66;5023388;28;20459;-69
2023/01/12 08:46:33;;;;;;;1.63;1.53;;;;;;;7.51;100.00;99173.31;5021993;28;20573;-67
2023/01/12 08:49:00;;;;;;;1.30;1.20;;;;;;;7.47;100.00;99153.34;5038629;28;20462;-67
2023/01/12 08:51:27;;;;;;;6.37;1.60;;;;;;;7.53;100.00;99184.69;5028318;28;20981;-66
2023/01/12 08:53:53;;;;;;;3.40;1.40;;;;;;;7.51;100.00;99165.34;5024104;28;20458;-67
2023/01/12 08:56:21;;;;;;;2.50;1.63;;;;;;;7.61;100.00;99165.31;5040239;28;20484;-67
2023/01/12 08:58:48;;;;;;;3.10;1.87;;;;;;;7.58;100.00;99162.09;5041132;28;21041;-67
2023/01/12 09:01:15;;;;;;;2.80;1.77;;;;;;;7.58;100.00;99167.44;5040271;28;20512;-66
2023/01/12 09:03:44;;;;;;;3.60;2.40;;;;;;;7.76;100.00;99172.78;5040239;28;21011;-66
2023/01/12 09:06:12;;;;;;;3.60;1.80;;;;;;;7.79;100.00;99164.50;5001757;28;20487;-66
2023/01/12 09:08:39;;;;;;;3.57;2.30;;;;;;;7.79;100.00;99173.31;5018565;28;20464;-67
2023/01/12 09:11:06;;;;;;;1.97;1.77;;;;;;;7.71;100.00;99138.66;5034778;28;20562;-67
2023/01/12 09:13:34;;;;;;;2.10;1.53;;;;;;;7.79;100.00;99153.88;5020463;28;20486;-70
2023/01/12 09:16:05;;;;;;;3.83;2.57;;;;;;;8.04;100.00;99182.41;5037745;28;20493;-67
2023/01/12 09:18:31;;;;;;;5.20;2.20;;;;;;;7.97;100.00;99164.53;5040019;28;20438;-68
2023/01/12 09:21:02;;;;;;;2.53;1.80;;;;;;;8.03;100.00;99167.41;5018535;28;20510;-67
2023/01/12 09:23:29;;;;;;;1.93;1.83;;;;;;;8.10;100.00;99196.94;5029869;28;20483;-67
2023/01/12 09:25:56;;;;;;;3.33;1.93;;;;;;;8.15;100.00;99186.69;5019627;28;20471;-66
2023/01/12 09:28:23;;;;;;;1.90;1.80;;;;;;;8.13;100.00;99196.66;5020950;28;20443;-67
2023/01/12 09:30:51;;;;;;;2.10;1.50;;;;;;;8.18;100.00;99196.22;5020491;28;20470;-67
2023/01/12 09:33:17;;;;;;;1.97;1.87;;;;;;;8.14;100.00;99181.50;5037738;28;20526;-67
2023/01/12 09:35:45;;;;;;;2.50;1.50;;;;;;;8.21;100.00;99196.75;5028361;28;20514;-66
2023/01/12 09:38:11;;;;;;;4.10;1.73;;;;;;;8.20;100.00;99192.38;5020741;28;20651;-70
2023/01/12 09:40:42;;;;;;;1.60;1.50;;;;;;;8.28;100.00;99194.28;5019611;28;20598;-66
2023/01/12 09:48:41;;;;;;;5.03;1.77;;;;;;;8.30;100.00;99195.81;5004676;28;20498;-63
2023/01/12 09:51:12;;;;;;;2.63;2.43;;;;;;;8.39;100.00;99204.72;5019690;28;20474;-64
2023/01/12 09:53:40;;;;;;;3.53;2.20;;;;;;;8.43;100.00;99219.44;5020069;28;20885;-64
2023/01/12 09:56:15;;;;;;;3.73;1.90;;;;;;;8.36;100.00;99213.00;5020343;28;20511;-64
2023/01/12 09:58:58;;;;;;;3.27;2.17;;;;;;;8.55;100.00;99213.88;5020960;28;20499;-64
2023/01/12 10:01:26;;;;;;;4.43;2.00;;;;;;;8.46;100.00;99207.66;5036161;28;20510;-65
2023/01/12 10:03:53;;;;;;;3.77;2.90;;;;;;;8.48;100.00;99201.16;5039777;28;20446;-64
2023/01/12 10:06:20;;;;;;;2.60;2.40;;;;;;;8.55;100.00;99212.03;5039370;28;20544;-65
2023/01/12 10:08:49;;;;;;;2.93;2.70;;;;;;;8.69;100.00;99212.50;5023854;28;20463;-65
2023/01/12 10:11:19;;;;;;;4.80;3.30;;;;;;;8.60;100.00;99204.44;5004224;28;20479;-65
2023/01/12 10:14:06;;;;;;;8.03;3.70;;;;;;;8.81;100.00;99208.59;5008171;28;20506;-65
2023/01/12 10:16:43;;;;;;;3.30;2.77;;;;;;;8.82;100.00;99202.28;5005815;28;20479;-65
2023/01/12 10:19:18;;;;;;;5.87;2.70;;;;;;;8.67;100.00;99202.81;5008230;28;20450;-64
2023/01/12 10:21:52;;;;;;;3.60;2.70;;;;;;;8.83;100.00;99203.94;5018709;28;20482;-64
2023/01/12 10:24:20;;;;;;;3.80;3.50;;;;;;;8.96;100.00;99214.22;5019499;28;20455;-64
2023/01/12 10:26:51;;;;;;;6.37;2.83;;;;;;;8.85;100.00;99223.28;5021891;28;20529;-64
2023/01/12 10:29:19;;;;;;;3.30;3.00;;;;;;;8.93;100.00;99196.69;5039662;28;20546;-65
2023/01/12 10:31:47;;;;;;;3.27;2.97;;;;;;;8.92;100.00;99213.66;5026151;28;20830;-64
2023/01/12 10:34:14;;;;;;;3.17;2.87;;;;;;;8.95;100.00;99225.88;5020775;28;20509;-64
2023/01/12 10:36:43;;;;;;;3.40;3.00;;;;;;;9.01;100.00;99201.25;5038798;28;20532;-70
2023/01/12 10:39:28;;;;;;;5.97;3.43;;;;;;;9.25;100.00;99227.22;5026349;28;20474;-67
2023/01/12 10:43:17;;;;;;;4.00;3.60;;;;;;;9.06;100.00;99214.94;5024451;28;20536;-67
2023/01/12 10:45:16;;;;;;;5.30;3.97;;;;;;;9.09;100.00;99227.13;5038914;28;20537;-68
2023/01/12 10:47:46;;;;;;;4.00;3.30;;;;;;;9.08;100.00;99217.44;5000409;28;20445;-67
2023/01/12 10:50:22;;;;;;;6.30;3.80;;;;;;;9.21;100.00;99216.03;5028420;28;20562;-67
2023/01/12 10:52:50;;;;;;;6.70;3.87;;;;;;;9.33;100.00;99218.44;5025760;28;20451;-67
2023/01/12 10:55:19;;;;;;;5.40;3.63;;;;;;;9.15;100.00;99219.34;5016969;28;21020;-68
2023/01/12 10:57:47;;;;;;;3.40;3.10;;;;;;;9.32;100.00;99217.63;5019802;28;20431;-67
2023/01/12 11:00:19;;;;;;;2.83;2.50;;;;;;;9.21;100.00;99224.03;5028224;28;20482;-67
2023/01/12 11:02:47;;;;;;;3.63;3.30;;;;;;;9.36;100.00;99229.63;5020332;28;20507;-67
2023/01/12 11:05:28;;;;;;;3.37;3.00;;;;;;;9.32;100.00;99220.28;5018792;28;20463;-68
2023/01/12 11:07:55;;;;;;;3.40;2.80;;;;;;;9.32;100.00;99228.28;5015879;28;20463;-67
2023/01/12 11:10:27;;;;;;;3.43;2.57;;;;;;;9.29;100.00;99209.06;5019403;28;20475;-67
2023/01/12 11:12:57;;;;;;;3.77;2.90;;;;;;;9.29;100.00;99223.25;5025603;28;20485;-67
2023/01/12 11:15:24;;;;;;;6.80;3.60;;;;;;;9.19;100.00;99228.69;5020058;28;20844;-66
2023/01/12 11:18:04;;;;;;;4.50;4.10;;;;;;;9.23;100.00;99216.72;5039478;28;20431;-67
2023/01/12 11:20:36;;;;;;;4.20;3.80;;;;;;;9.19;100.00;99226.03;5036355;28;20489;-69
2023/01/12 11:23:08;;;;;;;4.60;3.97;;;;;;;9.24;100.00;99217.56;5020974;28;20594;-67
2023/01/12 11:25:39;;;;;;;5.63;4.20;;;;;;;9.36;100.00;99223.47;5019657;28;20471;-67
2023/01/12 11:28:10;;;;;;;4.53;4.13;;;;;;;9.19;100.00;99185.19;5019246;28;20482;-68
2023/01/12 11:30:43;;;;;;;5.67;4.70;;;;;;;9.32;100.00;99208.75;5029915;28;21051;-68
2023/01/12 11:33:13;;;;;;;5.13;4.63;;;;;;;9.31;100.00;99193.75;5039057;28;20493;-68
2023/01/12 11:35:43;;;;;;;5.33;4.83;;;;;;;9.30;100.00;99200.09;5012114;28;20499;-67
2023/01/12 11:38:12;;;;;;;5.33;4.40;;;;;;;9.29;100.00;99222.41;5022815;28;20995;-67
2023/01/12 11:40:40;;;;;;;6.63;5.10;;;;;;;9.36;100.00;99221.63;5021810;28;20558;-67
2023/01/12 11:46:04;;;;;;;5.43;4.93;;;;;;;9.54;100.00;99218.06;5023414;28;20477;-68
2023/01/12 11:48:37;;;;;;;6.63;5.33;;;;;;;9.48;100.00;99211.53;5029403;28;20450;-67
2023/01/12 11:51:04;;;;;;;6.97;4.60;;;;;;;9.39;100.00;99209.78;5022122;28;20538;-67
2023/01/12 11:53:31;;;;;;;5.50;4.50;;;;;;;9.32;100.00;99206.09;5025796;28;20498;-68
2023/01/12 11:56:12;;;;;;;5.13;4.73;;;;;;;9.49;100.00;99213.19;5023010;28;21004;-67
2023/01/12 11:58:48;;;;;;;5.50;4.90;;;;;;;9.49;100.00;99205.19;5024070;28;20463;-67
2023/01/12 12:01:20;;;;;;;6.17;5.20;;;;;;;9.51;100.00;99210.34;5024184;28;20483;-68
2023/01/12 12:04:02;;;;;;;6.10;5.60;;;;;;;9.58;100.00;99198.03;5040742;28;20466;-67
2023/01/12 12:06:55;;;;;;;6.20;5.60;;;;;;;9.52;100.00;99199.53;5031344;28;20508;-67
2023/01/12 12:09:39;;;;;;;8.20;6.37;;;;;;;9.46;100.00;99204.66;5038348;28;20469;-68
2023/01/12 12:12:10;;;;;;;6.93;6.33;;;;;;;9.56;100.00;99210.72;5039483;28;21900;-67
2023/01/12 12:14:47;;;;;;;6.00;5.50;;;;;;;9.51;100.00;99173.88;5030970;28;20479;-67
2023/01/12 12:17:18;;;;;;;8.00;5.23;;;;;;;9.61;100.00;99201.22;5039667;28;20469;-68